createdAt,value
2022-11-03T00:02:30.123Z,0.30
2022-11-03T00:05:20.576Z,0.38
2022-11-03T00:07:51.779Z,1.17
2022-11-03T00:10:22.537Z,0.57
2022-11-03T00:12:53.033Z,0.38
2022-11-03T00:15:23.728Z,0.65
2022-11-03T00:17:54.499Z,0.52
2022-11-03T00:20:24.704Z,0.30
2022-11-03T00:22:56.166Z,0.20
2022-11-03T00:25:26.883Z,0.38
2022-11-03T00:27:58.683Z,0.28
2022-11-03T00:30:29.027Z,0.60
2022-11-03T00:33:00.908Z,0.10
2022-11-03T00:35:31.087Z,0.13
2022-11-03T00:38:01.295Z,1.10
2022-11-03T00:40:31.861Z,0.28
2022-11-03T00:43:04.120Z,0.10
2022-11-03T00:45:35.071Z,0.20
2022-11-03T00:48:23.092Z,0.13
2022-11-03T00:50:53.454Z,1.02
2022-11-03T00:53:23.840Z,0.50
2022-11-03T00:55:56.165Z,0.52
2022-11-03T00:58:26.585Z,0.00
2022-11-03T01:01:12.463Z,0.50
2022-11-03T01:04:08.651Z,0.15
2022-11-03T01:06:54.326Z,0.45
2022-11-03T01:09:30.947Z,0.40
2022-11-03T01:12:06.266Z,0.20
2022-11-03T01:14:48.435Z,0.47
2022-11-03T01:17:23.578Z,1.27
2022-11-03T01:19:54.324Z,0.10
2022-11-03T01:22:26.710Z,0.00
2022-11-03T01:24:58.890Z,0.00
2022-11-03T01:27:30.206Z,0.05
2022-11-03T01:30:03.186Z,0.10
2022-11-03T01:32:34.265Z,0.20
2022-11-03T01:35:06.076Z,0.45
2022-11-03T01:37:36.736Z,0.90
2022-11-03T01:40:09.084Z,0.28
2022-11-03T01:42:39.293Z,0.00
2022-11-03T01:45:11.079Z,0.00
2022-11-03T01:47:41.887Z,0.00
2022-11-03T01:50:18.874Z,0.60
2022-11-03T01:52:57.464Z,1.15
2022-11-03T01:55:42.740Z,0.20
2022-11-03T01:58:21.939Z,1.20
2022-11-03T02:00:57.387Z,2.25
2022-11-03T02:03:31.892Z,0.00
2022-11-03T02:06:02.395Z,0.10
2022-11-03T02:08:41.226Z,0.30
2022-11-03T02:11:30.898Z,1.05
2022-11-03T02:14:02.711Z,0.20
2022-11-03T02:16:36.492Z,0.17
2022-11-03T02:19:12.250Z,0.13
2022-11-03T02:22:30.141Z,0.23
2022-11-03T02:25:08.086Z,0.20
2022-11-03T02:27:40.405Z,0.05
2022-11-03T02:30:11.984Z,0.10
2022-11-03T02:32:56.913Z,0.25
2022-11-03T02:35:41.112Z,0.22
2022-11-03T02:38:18.105Z,0.70
2022-11-03T02:40:55.098Z,0.47
2022-11-03T02:43:28.992Z,0.30
2022-11-03T02:46:00.031Z,0.35
2022-11-03T02:48:31.109Z,0.00
2022-11-03T02:51:01.319Z,0.50
2022-11-03T02:53:33.281Z,0.80
2022-11-03T02:56:18.501Z,0.20
2022-11-03T02:59:09.265Z,0.10
2022-11-03T03:01:50.896Z,0.20
2022-11-03T03:04:39.488Z,0.00
2022-11-03T03:07:42.433Z,0.70
2022-11-03T03:10:28.486Z,3.75
2022-11-03T03:13:03.801Z,0.15
2022-11-03T03:16:03.546Z,0.30
2022-11-03T03:18:46.309Z,2.28
2022-11-03T03:21:23.458Z,1.30
2022-11-03T03:24:22.535Z,0.20
2022-11-03T03:27:10.829Z,0.30
2022-11-03T03:30:04.937Z,0.43
2022-11-03T03:32:42.590Z,0.10
2022-11-03T03:35:27.979Z,0.43
2022-11-03T03:38:07.367Z,0.00
2022-11-03T03:40:42.587Z,0.50
2022-11-03T03:43:16.521Z,0.03
2022-11-03T03:45:49.693Z,0.08
2022-11-03T03:48:21.216Z,0.38
2022-11-03T03:50:56.918Z,0.40
2022-11-03T03:53:32.422Z,0.90
2022-11-03T03:56:07.053Z,0.10
2022-11-03T03:58:37.260Z,0.30
2022-11-03T04:01:07.990Z,0.17
2022-11-03T04:03:38.400Z,0.00
2022-11-03T04:06:09.181Z,0.80
2022-11-03T04:08:40.134Z,0.03
2022-11-03T04:11:28.623Z,0.47
2022-11-03T04:14:16.954Z,0.38
2022-11-03T04:17:05.231Z,1.80
2022-11-03T04:19:53.404Z,1.63
2022-11-03T04:22:24.153Z,1.88
2022-11-03T04:24:55.067Z,0.00
2022-11-03T04:27:32.570Z,0.85
2022-11-03T04:30:23.904Z,1.27
2022-11-03T04:32:55.832Z,1.05
2022-11-03T04:35:31.024Z,0.20
2022-11-03T04:38:04.706Z,0.22
2022-11-03T04:40:35.574Z,0.88
2022-11-03T04:43:14.205Z,1.85
2022-11-03T04:45:48.063Z,0.13
2022-11-03T04:48:20.935Z,0.22
2022-11-03T04:50:54.984Z,1.08
2022-11-03T04:53:27.772Z,0.20
2022-11-03T04:56:01.524Z,0.20
2022-11-03T04:58:38.812Z,0.30
2022-11-03T05:01:12.987Z,0.20
2022-11-03T05:03:45.109Z,0.47
2022-11-03T05:06:26.551Z,0.57
2022-11-03T05:09:02.349Z,0.10
2022-11-03T05:11:42.178Z,1.25
2022-11-03T05:14:32.360Z,1.20
2022-11-03T05:17:05.039Z,1.30
2022-11-03T05:19:45.653Z,0.50
2022-11-03T05:22:24.382Z,1.20
2022-11-03T05:25:03.839Z,0.22
2022-11-03T05:27:34.069Z,0.10
2022-11-03T05:30:04.385Z,0.40
2022-11-03T05:32:36.882Z,0.10
2022-11-03T05:35:15.020Z,0.10
2022-11-03T05:37:45.341Z,0.93
2022-11-03T05:40:33.506Z,0.73
2022-11-03T05:43:08.444Z,0.10
2022-11-03T05:45:41.760Z,0.30
2022-11-03T05:48:40.807Z,0.10
2022-11-03T05:51:41.823Z,0.20
2022-11-03T05:54:24.748Z,0.43
2022-11-03T05:56:55.088Z,0.70
2022-11-03T05:59:31.882Z,0.80
2022-11-03T06:02:07.172Z,1.10
2022-11-03T06:04:42.791Z,0.65
2022-11-03T06:07:35.671Z,1.70
2022-11-03T06:10:20.360Z,0.43
2022-11-03T06:12:50.846Z,0.45
2022-11-03T06:15:37.306Z,0.52
2022-11-03T06:18:24.721Z,0.40
2022-11-03T06:21:00.792Z,0.77
2022-11-03T06:23:31.666Z,0.55
2022-11-03T06:26:04.333Z,0.20
2022-11-03T06:28:40.393Z,0.28
2022-11-03T06:31:23.357Z,0.38
2022-11-03T06:33:54.816Z,1.40
2022-11-03T06:36:29.112Z,0.43
2022-11-03T06:39:19.282Z,0.55
2022-11-03T06:41:49.938Z,1.00
2022-11-03T06:44:28.041Z,1.15
2022-11-03T06:47:02.416Z,0.65
2022-11-03T06:49:38.472Z,0.20
2022-11-03T06:52:35.416Z,1.27
2022-11-03T06:55:13.926Z,1.30
2022-11-03T06:57:50.525Z,0.40
2022-11-03T07:00:35.146Z,0.45
2022-11-03T07:03:25.049Z,0.65
2022-11-03T07:06:19.357Z,0.63
2022-11-03T07:08:59.172Z,0.55
2022-11-03T07:11:34.169Z,1.45
2022-11-03T07:14:28.068Z,0.68
2022-11-03T07:17:06.093Z,0.80
2022-11-03T07:19:43.754Z,0.57
2022-11-03T07:22:27.402Z,0.30
2022-11-03T07:25:03.046Z,1.55
2022-11-03T07:27:38.897Z,0.70
2022-11-03T07:30:32.682Z,1.83
2022-11-03T07:33:24.358Z,0.75
2022-11-03T07:38:49.990Z,0.40
2022-11-03T07:41:28.205Z,0.73
2022-11-03T07:44:03.298Z,1.60
2022-11-03T07:46:34.361Z,1.67
2022-11-03T07:49:06.522Z,0.40
2022-11-03T07:51:44.083Z,1.77
2022-11-03T07:54:25.551Z,1.77
2022-11-03T07:57:18.144Z,1.05
2022-11-03T07:59:56.252Z,0.50
2022-11-03T08:02:32.918Z,1.45
2022-11-03T08:05:05.666Z,0.65
2022-11-03T08:07:36.634Z,1.25
2022-11-03T08:10:18.396Z,1.50
2022-11-03T08:12:49.273Z,2.03
2022-11-03T08:15:19.897Z,1.73
2022-11-03T08:17:55.044Z,1.08
2022-11-03T08:20:26.400Z,1.73
2022-11-03T08:23:23.942Z,1.70
2022-11-03T08:25:47.326Z,1.10
2022-11-03T08:28:17.817Z,1.75
2022-11-03T08:30:48.089Z,2.08
2022-11-03T08:33:19.838Z,0.73
2022-11-03T08:35:50.934Z,1.35
2022-11-03T08:38:27.549Z,0.52
2022-11-03T08:41:00.449Z,1.83
2022-11-03T08:43:31.935Z,2.83
2022-11-03T08:46:13.834Z,0.68
2022-11-03T08:48:50.083Z,1.88
2022-11-03T08:51:22.234Z,1.35
2022-11-03T08:53:56.568Z,1.75
2022-11-03T08:56:28.493Z,1.17
2022-11-03T08:59:02.625Z,1.83
2022-11-03T09:01:34.281Z,2.83
2022-11-03T09:04:05.645Z,1.60
2022-11-03T09:06:36.705Z,2.63
2022-11-03T09:12:01.069Z,1.40
2022-11-03T09:14:31.758Z,1.08
2022-11-03T09:19:33.551Z,1.85
2022-11-03T09:22:04.793Z,1.33
2022-11-03T09:24:35.188Z,1.42
2022-11-03T09:27:06.663Z,2.45
2022-11-03T09:30:06.606Z,2.55
2022-11-03T09:32:28.504Z,1.40
2022-11-03T09:35:01.357Z,2.70
2022-11-03T09:37:33.816Z,2.25
2022-11-03T09:40:04.987Z,3.28
2022-11-03T09:42:40.476Z,1.85
2022-11-03T09:45:13.128Z,2.83
2022-11-03T09:47:47.657Z,2.40
2022-11-03T09:50:22.128Z,1.85
2022-11-03T09:52:57.419Z,3.97
2022-11-03T09:55:30.630Z,1.00
2022-11-03T09:58:04.746Z,3.45
2022-11-03T10:00:37.455Z,3.67
2022-11-03T10:03:08.171Z,3.88
2022-11-03T10:05:38.904Z,2.30
2022-11-03T10:08:38.429Z,2.17
2022-11-03T10:11:12.558Z,3.10
2022-11-03T10:13:48.416Z,1.35
2022-11-03T10:16:22.757Z,3.33
2022-11-03T10:18:58.778Z,2.17
2022-11-03T10:21:33.418Z,4.32
2022-11-03T10:24:04.424Z,2.05
2022-11-03T10:26:50.634Z,3.50
2022-11-03T10:29:32.496Z,2.90
2022-11-03T10:32:05.147Z,2.05
2022-11-03T10:34:44.539Z,3.03
2022-11-03T10:37:25.097Z,4.32
2022-11-03T10:40:02.468Z,3.35
2022-11-03T10:42:36.123Z,2.90
2022-11-03T10:45:22.729Z,2.70
2022-11-03T10:48:05.097Z,3.03
2022-11-03T10:50:37.250Z,3.28
2022-11-03T10:53:10.012Z,2.92
2022-11-03T10:55:43.159Z,5.25
2022-11-03T10:58:14.622Z,1.70
2022-11-03T11:00:45.282Z,3.63
2022-11-03T11:03:20.596Z,3.72
2022-11-03T11:05:51.927Z,1.77
2022-11-03T11:08:30.575Z,2.25
2022-11-03T11:11:02.050Z,2.60
2022-11-03T11:13:33.230Z,2.42
2022-11-03T11:16:07.177Z,4.43
2022-11-03T11:18:38.334Z,1.73
2022-11-03T11:21:21.621Z,1.40
2022-11-03T11:23:55.087Z,3.28
2022-11-03T11:26:30.839Z,2.35
2022-11-03T11:29:36.080Z,3.03
2022-11-03T11:32:50.097Z,2.88
2022-11-03T11:35:25.038Z,2.45
2022-11-03T11:37:56.471Z,5.10
2022-11-03T11:40:27.341Z,5.53
2022-11-03T11:43:29.389Z,4.57
2022-11-03T11:46:26.166Z,2.45
2022-11-03T11:49:19.276Z,3.05
2022-11-03T11:51:50.656Z,3.42
2022-11-03T11:54:23.579Z,2.78
2022-11-03T11:56:53.903Z,1.70
2022-11-03T11:59:27.698Z,3.60
2022-11-03T12:01:59.234Z,4.35
2022-11-03T12:04:32.937Z,3.72
2022-11-03T12:07:03.298Z,4.97
2022-11-03T12:09:33.787Z,2.83
2022-11-03T12:12:08.553Z,1.92
2022-11-03T12:14:41.062Z,5.90
2022-11-03T12:17:20.455Z,2.55
2022-11-03T12:19:57.473Z,3.70
2022-11-03T12:25:03.066Z,4.35
2022-11-03T12:27:34.888Z,3.95
2022-11-03T12:30:10.820Z,2.10
2022-11-03T12:32:41.605Z,2.35
2022-11-03T12:35:13.659Z,8.85
2022-11-03T12:37:44.056Z,0.82
2022-11-03T12:40:16.196Z,1.80
2022-11-03T12:42:46.540Z,1.65
2022-11-03T12:45:16.750Z,1.70
2022-11-03T12:47:46.950Z,3.47
2022-11-03T12:50:17.363Z,2.92
2022-11-03T12:52:47.584Z,2.45
2022-11-03T12:55:17.913Z,2.90
2022-11-03T12:57:48.277Z,1.10
2022-11-03T13:00:19.716Z,4.68
2022-11-03T13:02:51.080Z,3.45
2022-11-03T13:05:21.859Z,2.08
2022-11-03T13:07:52.056Z,3.70
2022-11-03T13:10:23.707Z,5.03
2022-11-03T13:12:54.578Z,4.50
2022-11-03T13:15:24.878Z,2.45
2022-11-03T13:20:46.666Z,2.30
2022-11-03T13:23:20.473Z,2.42
2022-11-03T13:25:54.260Z,2.85
2022-11-03T13:28:24.730Z,3.45
2022-11-03T13:30:55.940Z,4.57
2022-11-03T13:33:26.657Z,3.38
2022-11-03T13:35:57.177Z,3.42
2022-11-03T13:38:31.232Z,3.03
2022-11-03T13:41:07.043Z,2.80
2022-11-03T13:43:38.987Z,3.90
2022-11-03T13:46:09.685Z,2.85
2022-11-03T13:51:30.108Z,4.70
2022-11-03T13:59:41.049Z,2.47
2022-11-03T14:05:07.248Z,3.17
2022-11-03T14:07:39.725Z,5.25
2022-11-03T14:10:10.610Z,2.85
2022-11-03T14:12:40.809Z,3.15
2022-11-03T14:15:13.841Z,1.27
2022-11-03T14:17:44.633Z,3.92
2022-11-03T14:20:16.173Z,2.08
2022-11-03T14:22:47.088Z,2.95
2022-11-03T14:25:17.799Z,2.38
2022-11-03T14:27:49.463Z,2.95
2022-11-03T14:30:21.753Z,7.50
2022-11-03T14:32:56.760Z,1.30
2022-11-03T14:35:29.774Z,3.10
2022-11-03T14:38:00.363Z,2.95
2022-11-03T14:40:48.956Z,3.33
2022-11-03T14:43:19.249Z,2.45
2022-11-03T14:45:50.442Z,3.72
2022-11-03T14:48:20.681Z,2.92
2022-11-03T14:50:51.511Z,4.78
2022-11-03T14:53:23.443Z,2.20
2022-11-03T14:55:53.736Z,4.22
2022-11-03T14:58:23.926Z,2.70
2022-11-03T15:00:54.283Z,6.25
2022-11-03T15:03:24.562Z,3.17
2022-11-03T15:06:15.766Z,3.90
2022-11-03T15:08:48.927Z,3.75
2022-11-03T15:11:22.742Z,5.35
2022-11-03T15:13:53.028Z,3.28
2022-11-03T15:16:24.109Z,3.55
2022-11-03T15:18:55.313Z,2.75
2022-11-03T15:21:26.353Z,2.80
2022-11-03T15:26:47.595Z,4.65
2022-11-03T15:29:17.899Z,3.35
2022-11-03T15:31:48.731Z,4.00
2022-11-03T15:34:19.902Z,3.97
2022-11-03T15:36:50.579Z,3.03
2022-11-03T15:39:21.360Z,4.78
2022-11-03T15:41:51.567Z,5.72
2022-11-03T15:44:26.347Z,3.25
2022-11-03T15:46:57.986Z,5.25
2022-11-03T15:49:28.364Z,3.42
2022-11-03T15:51:58.653Z,3.72
2022-11-03T15:54:29.343Z,5.30
2022-11-03T15:57:04.093Z,4.68
2022-11-03T15:59:44.868Z,3.28
2022-11-03T16:02:35.712Z,2.72
2022-11-03T16:05:05.565Z,3.88
2022-11-03T16:07:36.504Z,3.78
2022-11-03T16:10:07.075Z,3.05
2022-11-03T16:12:37.942Z,3.65
2022-11-03T16:15:10.393Z,6.25
2022-11-03T16:17:45.363Z,4.03
2022-11-03T16:20:16.189Z,2.85
2022-11-03T16:22:46.477Z,3.60
2022-11-03T16:25:20.600Z,4.38
2022-11-03T16:27:52.255Z,2.63
2022-11-03T16:30:22.939Z,4.40
2022-11-03T16:32:56.598Z,5.50
2022-11-03T16:35:26.849Z,2.45
2022-11-03T16:37:57.499Z,6.32
2022-11-03T16:40:27.686Z,5.80
2022-11-03T16:42:58.002Z,3.72
2022-11-03T16:45:37.987Z,3.30
2022-11-03T16:48:12.463Z,7.43
2022-11-03T16:50:44.686Z,6.63
2022-11-03T16:53:15.358Z,3.67
2022-11-03T16:55:51.124Z,3.58
2022-11-03T16:58:22.436Z,5.72
2022-11-03T17:00:53.155Z,4.70
2022-11-03T17:03:25.578Z,3.95
2022-11-03T17:05:56.349Z,3.47
2022-11-03T17:08:51.898Z,7.88
2022-11-03T17:11:38.905Z,4.13
2022-11-03T17:14:15.078Z,5.10
2022-11-03T17:16:51.397Z,2.90
2022-11-03T17:19:22.624Z,2.25
2022-11-03T17:21:52.931Z,3.35
2022-11-03T17:24:30.158Z,4.10
2022-11-03T17:27:29.220Z,3.88
2022-11-03T17:30:03.971Z,4.68
2022-11-03T17:32:41.856Z,5.22
2022-11-03T17:35:28.604Z,4.70
2022-11-03T17:38:00.677Z,4.03
2022-11-03T17:40:32.922Z,3.97
2022-11-03T17:43:03.634Z,2.50
2022-11-03T17:45:35.065Z,4.07
2022-11-03T17:48:05.355Z,6.00
2022-11-03T17:50:36.715Z,6.25
2022-11-03T17:53:08.709Z,2.92
2022-11-03T17:55:40.896Z,3.72
2022-11-03T17:58:13.467Z,3.20
2022-11-03T18:00:43.832Z,4.93
2022-11-03T18:03:16.728Z,4.55
2022-11-03T18:05:46.962Z,6.70
2022-11-03T18:08:21.764Z,1.85
2022-11-03T18:13:49.378Z,7.75
2022-11-03T18:16:21.015Z,3.72
2022-11-03T18:19:00.406Z,4.30
2022-11-03T18:21:36.889Z,4.82
2022-11-03T18:24:19.525Z,2.78
2022-11-03T18:26:50.872Z,4.18
2022-11-03T18:29:22.740Z,4.47
2022-11-03T18:31:53.479Z,2.83
2022-11-03T18:34:30.843Z,3.25
2022-11-03T18:37:01.590Z,3.03
2022-11-03T18:39:36.551Z,6.05
2022-11-03T18:42:23.055Z,5.88
2022-11-03T18:44:54.846Z,10.07
2022-11-03T18:47:36.560Z,5.15
2022-11-03T18:50:09.516Z,2.58
2022-11-03T18:52:54.766Z,5.75
2022-11-03T18:55:25.330Z,5.07
2022-11-03T18:57:58.335Z,2.95
2022-11-03T19:00:31.182Z,2.53
2022-11-03T19:03:01.505Z,4.32
2022-11-03T19:05:31.726Z,3.55
2022-11-03T19:08:02.006Z,4.85
2022-11-03T19:10:32.325Z,3.95
2022-11-03T19:13:02.577Z,7.30
2022-11-03T19:15:33.170Z,3.95
2022-11-03T19:18:07.362Z,5.75
2022-11-03T19:20:37.666Z,4.10
2022-11-03T19:23:08.664Z,4.45
2022-11-03T19:25:45.869Z,2.72
2022-11-03T19:28:23.147Z,2.92
2022-11-03T19:30:58.026Z,3.33
2022-11-03T19:33:32.424Z,3.17
2022-11-03T19:36:03.184Z,2.95
2022-11-03T19:38:35.801Z,3.08
2022-11-03T19:41:24.240Z,2.83
2022-11-03T19:43:56.007Z,3.72
2022-11-03T19:46:27.245Z,4.03
2022-11-03T19:48:59.422Z,4.28
2022-11-03T19:51:31.820Z,4.43
2022-11-03T19:54:02.521Z,7.35
2022-11-03T19:56:32.864Z,4.57
2022-11-03T19:59:08.448Z,9.13
2022-11-03T20:01:39.179Z,6.47
2022-11-03T20:04:10.286Z,4.43
2022-11-03T20:06:42.903Z,4.50
2022-11-03T20:09:20.989Z,3.28
2022-11-03T20:11:51.690Z,4.03
2022-11-03T20:14:27.379Z,3.25
2022-11-03T20:17:15.735Z,3.60
2022-11-03T20:19:46.944Z,3.70
2022-11-03T20:22:30.239Z,4.30
2022-11-03T20:25:06.547Z,4.28
2022-11-03T20:27:37.399Z,3.65
2022-11-03T20:30:08.599Z,7.13
2022-11-03T20:32:38.971Z,3.22
2022-11-03T20:35:09.556Z,3.60
2022-11-03T20:37:47.833Z,2.42
2022-11-03T20:40:23.937Z,5.05
2022-11-03T20:43:02.029Z,6.50
2022-11-03T20:45:32.910Z,5.18
2022-11-03T20:48:03.163Z,2.55
2022-11-03T20:50:34.005Z,4.13
2022-11-03T20:53:04.654Z,2.85
2022-11-03T20:55:34.961Z,3.33
2022-11-03T20:58:05.954Z,3.80
2022-11-03T21:00:37.213Z,5.00
2022-11-03T21:03:44.899Z,2.50
2022-11-03T21:06:11.406Z,3.10
2022-11-03T21:08:42.197Z,2.65
2022-11-03T21:11:29.417Z,3.08
2022-11-03T21:14:05.071Z,2.33
2022-11-03T21:16:53.972Z,3.57
2022-11-03T21:20:03.705Z,2.53
2022-11-03T21:22:53.469Z,3.80
2022-11-03T21:25:26.314Z,2.60
2022-11-03T21:27:56.896Z,4.70
2022-11-03T21:30:27.094Z,3.75
2022-11-03T21:33:11.228Z,2.10
2022-11-03T21:35:43.456Z,3.40
2022-11-03T21:38:15.304Z,2.22
2022-11-03T21:40:56.402Z,1.20
2022-11-03T21:43:45.963Z,11.48
2022-11-03T21:46:16.590Z,6.38
2022-11-03T21:49:05.026Z,4.68
2022-11-03T21:51:35.703Z,4.65
2022-11-03T21:54:07.883Z,2.75
2022-11-03T21:56:38.512Z,3.42
2022-11-03T21:59:10.407Z,6.15
2022-11-03T22:01:42.350Z,9.60
2022-11-03T22:04:13.013Z,9.82
2022-11-03T22:06:44.151Z,6.53
2022-11-03T22:09:14.780Z,2.92
2022-11-03T22:11:45.460Z,4.15
2022-11-03T22:14:16.280Z,6.18
2022-11-03T22:16:47.565Z,5.70
2022-11-03T22:19:42.113Z,9.20
2022-11-03T22:22:36.398Z,4.07
2022-11-03T22:25:25.338Z,2.30
2022-11-03T22:27:55.969Z,2.35
2022-11-03T22:30:44.553Z,3.17
2022-11-03T22:33:16.065Z,2.70
2022-11-03T22:36:04.568Z,3.00
2022-11-03T22:38:56.022Z,1.88
2022-11-03T22:41:45.902Z,3.63
2022-11-03T22:44:34.416Z,2.13
2022-11-03T22:47:08.099Z,3.95
2022-11-03T22:49:39.482Z,4.28
2022-11-03T22:52:13.018Z,3.85
2022-11-03T22:54:43.722Z,1.70
2022-11-03T22:57:16.436Z,1.15
2022-11-03T22:59:47.405Z,4.30
2022-11-03T23:02:18.255Z,1.80
2022-11-03T23:04:51.140Z,1.15
2022-11-03T23:07:25.747Z,1.52
2022-11-03T23:09:58.730Z,1.77
2022-11-03T23:12:30.941Z,3.95
2022-11-03T23:15:20.966Z,2.00
2022-11-03T23:18:11.179Z,2.10
2022-11-03T23:21:00.752Z,2.28
2022-11-03T23:23:50.712Z,1.77
2022-11-03T23:26:22.170Z,1.73
2022-11-03T23:28:52.864Z,1.70
2022-11-03T23:31:34.944Z,2.13
2022-11-03T23:34:07.305Z,2.85
2022-11-03T23:36:39.082Z,1.95
2022-11-03T23:39:10.427Z,1.85
2022-11-03T23:41:41.303Z,2.92
2022-11-03T23:44:17.206Z,1.38
2022-11-03T23:47:06.173Z,2.08
2022-11-03T23:49:36.873Z,3.47
2022-11-03T23:52:07.698Z,2.72
2022-11-03T23:54:38.000Z,0.77
2022-11-03T23:57:26.562Z,1.92
2022-11-03T23:59:56.806Z,1.25
